sensor_id;sensor_type;location;lat;lon;timestamp;pressure;altitude;pressure_sealevel;temperature
9119;BMP180;4594;50.994;7.126;2022-11-27T00:01:13;101733.00;;;10.30
9119;BMP180;4594;50.994;7.126;2022-11-27T00:03:40;101725.00;;;10.30
9119;BMP180;4594;50.994;7.126;2022-11-27T00:06:09;101737.00;;;10.30
9119;BMP180;4594;50.994;7.126;2022-11-27T00:08:36;101716.00;;;10.30
9119;BMP180;4594;50.994;7.126;2022-11-27T00:11:17;101719.00;;;10.30
9119;BMP180;4594;50.994;7.126;2022-11-27T00:13:43;101720.00;;;10.30
9119;BMP180;4594;50.994;7.126;2022-11-27T00:16:09;101724.00;;;10.20
9119;BMP180;4594;50.994;7.126;2022-11-27T00:18:35;101717.00;;;10.20
9119;BMP180;4594;50.994;7.126;2022-11-27T00:21:16;101721.00;;;10.20
9119;BMP180;4594;50.994;7.126;2022-11-27T00:23:43;101691.00;;;10.20
9119;BMP180;4594;50.994;7.126;2022-11-27T00:26:10;101717.00;;;10.10
9119;BMP180;4594;50.994;7.126;2022-11-27T00:28:36;101706.00;;;10.10
9119;BMP180;4594;50.994;7.126;2022-11-27T00:31:12;101713.00;;;10.10
9119;BMP180;4594;50.994;7.126;2022-11-27T00:33:38;101707.00;;;10.10
9119;BMP180;4594;50.994;7.126;2022-11-27T00:36:05;101711.00;;;10.10
9119;BMP180;4594;50.994;7.126;2022-11-27T00:38:32;101713.00;;;10.10
9119;BMP180;4594;50.994;7.126;2022-11-27T00:41:20;101708.00;;;10.10
9119;BMP180;4594;50.994;7.126;2022-11-27T00:43:46;101708.00;;;10.10
9119;BMP180;4594;50.994;7.126;2022-11-27T00:46:18;101708.00;;;10.10
9119;BMP180;4594;50.994;7.126;2022-11-27T00:48:45;101688.00;;;10.10
9119;BMP180;4594;50.994;7.126;2022-11-27T00:51:15;101700.00;;;10.10
9119;BMP180;4594;50.994;7.126;2022-11-27T00:53:41;101708.00;;;10.10
9119;BMP180;4594;50.994;7.126;2022-11-27T00:56:07;101693.00;;;10.00
9119;BMP180;4594;50.994;7.126;2022-11-27T00:58:33;101696.00;;;10.00
9119;BMP180;4594;50.994;7.126;2022-11-27T01:01:03;101717.00;;;10.00
9119;BMP180;4594;50.994;7.126;2022-11-27T01:03:30;101698.00;;;10.00
9119;BMP180;4594;50.994;7.126;2022-11-27T01:06:02;101706.00;;;10.00
9119;BMP180;4594;50.994;7.126;2022-11-27T01:08:27;101710.00;;;10.00
9119;BMP180;4594;50.994;7.126;2022-11-27T01:10:56;101705.00;;;10.00
9119;BMP180;4594;50.994;7.126;2022-11-27T01:13:25;101704.00;;;10.00
9119;BMP180;4594;50.994;7.126;2022-11-27T01:16:13;101689.00;;;10.00
9119;BMP180;4594;50.994;7.126;2022-11-27T01:18:41;101712.00;;;10.00
9119;BMP180;4594;50.994;7.126;2022-11-27T01:21:09;101706.00;;;10.00
9119;BMP180;4594;50.994;7.126;2022-11-27T01:23:36;101708.00;;;10.00
9119;BMP180;4594;50.994;7.126;2022-11-27T01:26:05;101705.00;;;10.00
9119;BMP180;4594;50.994;7.126;2022-11-27T01:28:31;101694.00;;;10.00
9119;BMP180;4594;50.994;7.126;2022-11-27T01:30:58;101705.00;;;9.90
9119;BMP180;4594;50.994;7.126;2022-11-27T01:33:24;101697.00;;;10.00
9119;BMP180;4594;50.994;7.126;2022-11-27T01:35:58;101687.00;;;9.90
9119;BMP180;4594;50.994;7.126;2022-11-27T01:38:26;101684.00;;;9.90
9119;BMP180;4594;50.994;7.126;2022-11-27T01:41:03;101686.00;;;9.90
9119;BMP180;4594;50.994;7.126;2022-11-27T01:44:02;101689.00;;;9.80
9119;BMP180;4594;50.994;7.126;2022-11-27T01:46:45;101682.00;;;9.80
9119;BMP180;4594;50.994;7.126;2022-11-27T01:51:46;101698.00;;;9.80
9119;BMP180;4594;50.994;7.126;2022-11-27T01:54:15;101681.00;;;9.80
9119;BMP180;4594;50.994;7.126;2022-11-27T01:56:47;101691.00;;;9.80
9119;BMP180;4594;50.994;7.126;2022-11-27T01:59:17;101689.00;;;9.80
9119;BMP180;4594;50.994;7.126;2022-11-27T02:01:43;101664.00;;;9.80
9119;BMP180;4594;50.994;7.126;2022-11-27T02:04:08;101663.00;;;9.80
9119;BMP180;4594;50.994;7.126;2022-11-27T02:06:34;101664.00;;;9.80
9119;BMP180;4594;50.994;7.126;2022-11-27T02:09:00;101648.00;;;9.70
9119;BMP180;4594;50.994;7.126;2022-11-27T02:11:45;101657.00;;;9.70
9119;BMP180;4594;50.994;7.126;2022-11-27T02:14:33;101651.00;;;9.70
9119;BMP180;4594;50.994;7.126;2022-11-27T02:17:39;101631.00;;;9.70
9119;BMP180;4594;50.994;7.126;2022-11-27T02:23:26;101639.00;;;9.60
9119;BMP180;4594;50.994;7.126;2022-11-27T02:32:04;101614.00;;;9.60
9119;BMP180;4594;50.994;7.126;2022-11-27T02:35:00;101631.00;;;9.50
9119;BMP180;4594;50.994;7.126;2022-11-27T02:40:10;101632.00;;;9.60
9119;BMP180;4594;50.994;7.126;2022-11-27T02:43:02;101628.00;;;9.60
9119;BMP180;4594;50.994;7.126;2022-11-27T02:45:38;101636.00;;;9.60
9119;BMP180;4594;50.994;7.126;2022-11-27T02:48:05;101624.00;;;9.60
9119;BMP180;4594;50.994;7.126;2022-11-27T02:50:36;101615.00;;;9.60
9119;BMP180;4594;50.994;7.126;2022-11-27T02:53:10;101600.00;;;9.70
9119;BMP180;4594;50.994;7.126;2022-11-27T02:55:39;101621.00;;;9.70
9119;BMP180;4594;50.994;7.126;2022-11-27T02:58:12;101599.00;;;9.70
9119;BMP180;4594;50.994;7.126;2022-11-27T03:00:42;101599.00;;;9.70
9119;BMP180;4594;50.994;7.126;2022-11-27T03:03:12;101581.00;;;9.70
9119;BMP180;4594;50.994;7.126;2022-11-27T03:05:42;101600.00;;;9.70
9119;BMP180;4594;50.994;7.126;2022-11-27T03:08:21;101587.00;;;9.70
9119;BMP180;4594;50.994;7.126;2022-11-27T03:11:04;101578.00;;;9.70
9119;BMP180;4594;50.994;7.126;2022-11-27T03:13:36;101572.00;;;9.60
9119;BMP180;4594;50.994;7.126;2022-11-27T03:16:49;101586.00;;;9.60
9119;BMP180;4594;50.994;7.126;2022-11-27T03:19:34;101575.00;;;9.60
9119;BMP180;4594;50.994;7.126;2022-11-27T03:22:03;101572.00;;;9.50
9119;BMP180;4594;50.994;7.126;2022-11-27T03:24:33;101578.00;;;9.50
9119;BMP180;4594;50.994;7.126;2022-11-27T03:27:00;101559.00;;;9.50
9119;BMP180;4594;50.994;7.126;2022-11-27T03:32:02;101574.00;;;9.50
9119;BMP180;4594;50.994;7.126;2022-11-27T03:34:29;101559.00;;;9.50
9119;BMP180;4594;50.994;7.126;2022-11-27T03:36:55;101563.00;;;9.50
9119;BMP180;4594;50.994;7.126;2022-11-27T03:39:22;101553.00;;;9.50
9119;BMP180;4594;50.994;7.126;2022-11-27T03:42:17;101562.00;;;9.40
9119;BMP180;4594;50.994;7.126;2022-11-27T03:50:45;101581.00;;;9.40
9119;BMP180;4594;50.994;7.126;2022-11-27T03:53:41;101587.00;;;9.40
9119;BMP180;4594;50.994;7.126;2022-11-27T03:56:34;101574.00;;;9.40
9119;BMP180;4594;50.994;7.126;2022-11-27T03:59:26;101583.00;;;9.40
9119;BMP180;4594;50.994;7.126;2022-11-27T04:01:53;101567.00;;;9.40
9119;BMP180;4594;50.994;7.126;2022-11-27T04:04:19;101565.00;;;9.40
9119;BMP180;4594;50.994;7.126;2022-11-27T04:06:44;101564.00;;;9.50
9119;BMP180;4594;50.994;7.126;2022-11-27T04:09:10;101558.00;;;9.50
9119;BMP180;4594;50.994;7.126;2022-11-27T04:11:36;101560.00;;;9.50
9119;BMP180;4594;50.994;7.126;2022-11-27T04:14:02;101539.00;;;9.50
9119;BMP180;4594;50.994;7.126;2022-11-27T04:16:27;101554.00;;;9.60
9119;BMP180;4594;50.994;7.126;2022-11-27T04:18:53;101551.00;;;9.60
9119;BMP180;4594;50.994;7.126;2022-11-27T04:21:20;101543.00;;;9.60
9119;BMP180;4594;50.994;7.126;2022-11-27T04:23:45;101542.00;;;9.60
9119;BMP180;4594;50.994;7.126;2022-11-27T04:26:11;101532.00;;;9.70
9119;BMP180;4594;50.994;7.126;2022-11-27T04:28:37;101514.00;;;9.70
9119;BMP180;4594;50.994;7.126;2022-11-27T04:31:02;101539.00;;;9.70
9119;BMP180;4594;50.994;7.126;2022-11-27T04:33:28;101529.00;;;9.70
9119;BMP180;4594;50.994;7.126;2022-11-27T04:35:54;101540.00;;;9.80
9119;BMP180;4594;50.994;7.126;2022-11-27T04:38:20;101542.00;;;9.80
9119;BMP180;4594;50.994;7.126;2022-11-27T04:40:47;101522.00;;;9.80
9119;BMP180;4594;50.994;7.126;2022-11-27T04:43:13;101499.00;;;9.80
9119;BMP180;4594;50.994;7.126;2022-11-27T04:45:38;101497.00;;;9.80
9119;BMP180;4594;50.994;7.126;2022-11-27T04:48:05;101506.00;;;9.80
9119;BMP180;4594;50.994;7.126;2022-11-27T04:50:31;101493.00;;;9.90
9119;BMP180;4594;50.994;7.126;2022-11-27T04:52:57;101500.00;;;9.90
9119;BMP180;4594;50.994;7.126;2022-11-27T04:55:22;101498.00;;;9.90
9119;BMP180;4594;50.994;7.126;2022-11-27T04:57:48;101479.00;;;9.90
9119;BMP180;4594;50.994;7.126;2022-11-27T05:00:14;101484.00;;;9.90
9119;BMP180;4594;50.994;7.126;2022-11-27T05:02:40;101478.00;;;9.90
9119;BMP180;4594;50.994;7.126;2022-11-27T05:05:06;101468.00;;;10.00
9119;BMP180;4594;50.994;7.126;2022-11-27T05:07:32;101461.00;;;10.00
9119;BMP180;4594;50.994;7.126;2022-11-27T05:09:57;101450.00;;;10.00
9119;BMP180;4594;50.994;7.126;2022-11-27T05:12:23;101451.00;;;10.00
9119;BMP180;4594;50.994;7.126;2022-11-27T05:14:49;101474.00;;;10.00
9119;BMP180;4594;50.994;7.126;2022-11-27T05:17:15;101483.00;;;10.10
9119;BMP180;4594;50.994;7.126;2022-11-27T05:19:40;101485.00;;;10.10
9119;BMP180;4594;50.994;7.126;2022-11-27T05:22:06;101469.00;;;10.10
9119;BMP180;4594;50.994;7.126;2022-11-27T05:24:32;101450.00;;;10.10
9119;BMP180;4594;50.994;7.126;2022-11-27T05:26:58;101483.00;;;10.10
9119;BMP180;4594;50.994;7.126;2022-11-27T05:29:24;101463.00;;;10.20
9119;BMP180;4594;50.994;7.126;2022-11-27T05:31:50;101450.00;;;10.20
9119;BMP180;4594;50.994;7.126;2022-11-27T05:34:16;101438.00;;;10.20
9119;BMP180;4594;50.994;7.126;2022-11-27T05:36:42;101455.00;;;10.20
9119;BMP180;4594;50.994;7.126;2022-11-27T05:39:09;101439.00;;;10.30
9119;BMP180;4594;50.994;7.126;2022-11-27T05:41:38;101423.00;;;10.30
9119;BMP180;4594;50.994;7.126;2022-11-27T05:44:05;101427.00;;;10.30
9119;BMP180;4594;50.994;7.126;2022-11-27T05:46:31;101413.00;;;10.30
9119;BMP180;4594;50.994;7.126;2022-11-27T05:48:57;101454.00;;;10.40
9119;BMP180;4594;50.994;7.126;2022-11-27T05:51:23;101442.00;;;10.40
9119;BMP180;4594;50.994;7.126;2022-11-27T05:53:49;101439.00;;;10.40
9119;BMP180;4594;50.994;7.126;2022-11-27T05:56:17;101422.00;;;10.40
9119;BMP180;4594;50.994;7.126;2022-11-27T05:58:46;101434.00;;;10.40
9119;BMP180;4594;50.994;7.126;2022-11-27T06:01:14;101440.00;;;10.40
9119;BMP180;4594;50.994;7.126;2022-11-27T06:03:40;101431.00;;;10.40
9119;BMP180;4594;50.994;7.126;2022-11-27T06:06:24;101423.00;;;10.40
9119;BMP180;4594;50.994;7.126;2022-11-27T06:08:50;101416.00;;;10.50
9119;BMP180;4594;50.994;7.126;2022-11-27T06:11:19;101409.00;;;10.50
9119;BMP180;4594;50.994;7.126;2022-11-27T06:13:47;101416.00;;;10.50
9119;BMP180;4594;50.994;7.126;2022-11-27T06:16:17;101427.00;;;10.50
9119;BMP180;4594;50.994;7.126;2022-11-27T06:18:44;101425.00;;;10.50
9119;BMP180;4594;50.994;7.126;2022-11-27T06:21:13;101430.00;;;10.60
9119;BMP180;4594;50.994;7.126;2022-11-27T06:23:40;101413.00;;;10.60
9119;BMP180;4594;50.994;7.126;2022-11-27T06:26:16;101421.00;;;10.60
9119;BMP180;4594;50.994;7.126;2022-11-27T06:28:42;101419.00;;;10.60
9119;BMP180;4594;50.994;7.126;2022-11-27T06:31:13;101410.00;;;10.60
9119;BMP180;4594;50.994;7.126;2022-11-27T06:33:39;101418.00;;;10.70
9119;BMP180;4594;50.994;7.126;2022-11-27T06:36:05;101417.00;;;10.70
9119;BMP180;4594;50.994;7.126;2022-11-27T06:38:34;101413.00;;;10.70
9119;BMP180;4594;50.994;7.126;2022-11-27T06:41:06;101410.00;;;10.70
9119;BMP180;4594;50.994;7.126;2022-11-27T06:43:33;101399.00;;;10.80
9119;BMP180;4594;50.994;7.126;2022-11-27T06:46:01;101407.00;;;10.80
9119;BMP180;4594;50.994;7.126;2022-11-27T06:48:27;101407.00;;;10.90
9119;BMP180;4594;50.994;7.126;2022-11-27T06:50:57;101384.00;;;10.90
9119;BMP180;4594;50.994;7.126;2022-11-27T06:53:22;101383.00;;;10.90
9119;BMP180;4594;50.994;7.126;2022-11-27T06:55:48;101393.00;;;10.90
9119;BMP180;4594;50.994;7.126;2022-11-27T06:58:14;101394.00;;;10.90
9119;BMP180;4594;50.994;7.126;2022-11-27T07:00:40;101387.00;;;10.90
9119;BMP180;4594;50.994;7.126;2022-11-27T07:03:06;101373.00;;;11.00
9119;BMP180;4594;50.994;7.126;2022-11-27T07:05:31;101358.00;;;11.00
9119;BMP180;4594;50.994;7.126;2022-11-27T07:07:58;101363.00;;;11.00
9119;BMP180;4594;50.994;7.126;2022-11-27T07:10:23;101368.00;;;11.00
9119;BMP180;4594;50.994;7.126;2022-11-27T07:12:49;101356.00;;;11.00
9119;BMP180;4594;50.994;7.126;2022-11-27T07:15:15;101357.00;;;11.00
9119;BMP180;4594;50.994;7.126;2022-11-27T07:17:40;101361.00;;;11.00
9119;BMP180;4594;50.994;7.126;2022-11-27T07:20:07;101358.00;;;11.00
9119;BMP180;4594;50.994;7.126;2022-11-27T07:22:33;101350.00;;;11.00
9119;BMP180;4594;50.994;7.126;2022-11-27T07:24:59;101363.00;;;11.00
9119;BMP180;4594;50.994;7.126;2022-11-27T07:27:25;101324.00;;;11.10
9119;BMP180;4594;50.994;7.126;2022-11-27T07:29:51;101320.00;;;11.10
9119;BMP180;4594;50.994;7.126;2022-11-27T07:32:17;101349.00;;;11.10
9119;BMP180;4594;50.994;7.126;2022-11-27T07:34:42;101330.00;;;11.20
9119;BMP180;4594;50.994;7.126;2022-11-27T07:37:08;101346.00;;;11.20
9119;BMP180;4594;50.994;7.126;2022-11-27T07:39:33;101347.00;;;11.20
9119;BMP180;4594;50.994;7.126;2022-11-27T07:41:59;101362.00;;;11.30
9119;BMP180;4594;50.994;7.126;2022-11-27T07:44:25;101329.00;;;11.30
9119;BMP180;4594;50.994;7.126;2022-11-27T07:46:50;101328.00;;;11.30
9119;BMP180;4594;50.994;7.126;2022-11-27T07:49:16;101310.00;;;11.40
9119;BMP180;4594;50.994;7.126;2022-11-27T07:51:42;101304.00;;;11.40
9119;BMP180;4594;50.994;7.126;2022-11-27T07:54:09;101318.00;;;11.50
9119;BMP180;4594;50.994;7.126;2022-11-27T07:56:34;101309.00;;;11.50
9119;BMP180;4594;50.994;7.126;2022-11-27T07:59:00;101294.00;;;11.50
9119;BMP180;4594;50.994;7.126;2022-11-27T08:01:26;101306.00;;;11.60
9119;BMP180;4594;50.994;7.126;2022-11-27T08:03:52;101298.00;;;11.60
9119;BMP180;4594;50.994;7.126;2022-11-27T08:06:23;101287.00;;;11.60
9119;BMP180;4594;50.994;7.126;2022-11-27T08:08:50;101288.00;;;11.70
9119;BMP180;4594;50.994;7.126;2022-11-27T08:11:24;101297.00;;;11.70
9119;BMP180;4594;50.994;7.126;2022-11-27T08:13:56;101290.00;;;11.80
9119;BMP180;4594;50.994;7.126;2022-11-27T08:16:22;101283.00;;;11.80
9119;BMP180;4594;50.994;7.126;2022-11-27T08:18:48;101291.00;;;11.90
9119;BMP180;4594;50.994;7.126;2022-11-27T08:21:14;101288.00;;;11.90
9119;BMP180;4594;50.994;7.126;2022-11-27T08:23:40;101295.00;;;12.00
9119;BMP180;4594;50.994;7.126;2022-11-27T08:26:08;101287.00;;;12.00
9119;BMP180;4594;50.994;7.126;2022-11-27T08:28:34;101279.00;;;12.10
9119;BMP180;4594;50.994;7.126;2022-11-27T08:31:02;101290.00;;;12.10
9119;BMP180;4594;50.994;7.126;2022-11-27T08:33:29;101285.00;;;12.20
9119;BMP180;4594;50.994;7.126;2022-11-27T08:35:55;101291.00;;;12.20
9119;BMP180;4594;50.994;7.126;2022-11-27T08:38:21;101273.00;;;12.20
9119;BMP180;4594;50.994;7.126;2022-11-27T08:40:59;101259.00;;;12.30
9119;BMP180;4594;50.994;7.126;2022-11-27T08:43:27;101270.00;;;12.30
9119;BMP180;4594;50.994;7.126;2022-11-27T08:45:53;101297.00;;;12.40
9119;BMP180;4594;50.994;7.126;2022-11-27T08:48:20;101318.00;;;12.50
9119;BMP180;4594;50.994;7.126;2022-11-27T08:50:48;101302.00;;;12.50
9119;BMP180;4594;50.994;7.126;2022-11-27T08:53:15;101314.00;;;12.60
9119;BMP180;4594;50.994;7.126;2022-11-27T08:55:42;101274.00;;;12.70
9119;BMP180;4594;50.994;7.126;2022-11-27T08:58:08;101297.00;;;12.70
9119;BMP180;4594;50.994;7.126;2022-11-27T09:00:35;101306.00;;;12.80
9119;BMP180;4594;50.994;7.126;2022-11-27T09:03:02;101318.00;;;12.90
9119;BMP180;4594;50.994;7.126;2022-11-27T09:05:29;101314.00;;;12.90
9119;BMP180;4594;50.994;7.126;2022-11-27T09:07:55;101293.00;;;12.90
9119;BMP180;4594;50.994;7.126;2022-11-27T09:10:21;101281.00;;;13.00
9119;BMP180;4594;50.994;7.126;2022-11-27T09:12:49;101300.00;;;13.00
9119;BMP180;4594;50.994;7.126;2022-11-27T09:15:15;101299.00;;;13.10
9119;BMP180;4594;50.994;7.126;2022-11-27T09:17:41;101294.00;;;13.20
9119;BMP180;4594;50.994;7.126;2022-11-27T09:20:09;101305.00;;;13.20
9119;BMP180;4594;50.994;7.126;2022-11-27T09:22:35;101292.00;;;13.20
9119;BMP180;4594;50.994;7.126;2022-11-27T09:25:01;101282.00;;;13.30
9119;BMP180;4594;50.994;7.126;2022-11-27T09:27:27;101278.00;;;13.30
9119;BMP180;4594;50.994;7.126;2022-11-27T09:29:53;101291.00;;;13.30
9119;BMP180;4594;50.994;7.126;2022-11-27T09:32:19;101270.00;;;13.30
9119;BMP180;4594;50.994;7.126;2022-11-27T09:34:44;101262.00;;;13.30
9119;BMP180;4594;50.994;7.126;2022-11-27T09:37:11;101264.00;;;13.20
9119;BMP180;4594;50.994;7.126;2022-11-27T09:39:37;101268.00;;;13.20
9119;BMP180;4594;50.994;7.126;2022-11-27T09:42:05;101265.00;;;13.30
9119;BMP180;4594;50.994;7.126;2022-11-27T09:44:43;101248.00;;;13.30
9119;BMP180;4594;50.994;7.126;2022-11-27T09:47:39;101235.00;;;13.30
9119;BMP180;4594;50.994;7.126;2022-11-27T09:50:20;101255.00;;;13.30
9119;BMP180;4594;50.994;7.126;2022-11-27T09:53:04;101224.00;;;13.30
9119;BMP180;4594;50.994;7.126;2022-11-27T09:55:43;101257.00;;;13.40
9119;BMP180;4594;50.994;7.126;2022-11-27T09:58:38;101240.00;;;13.50
9119;BMP180;4594;50.994;7.126;2022-11-27T10:01:14;101225.00;;;13.60
9119;BMP180;4594;50.994;7.126;2022-11-27T10:03:43;101209.00;;;13.70
9119;BMP180;4594;50.994;7.126;2022-11-27T10:15:37;101226.00;;;13.90
9119;BMP180;4594;50.994;7.126;2022-11-27T10:19:03;101238.00;;;14.00
9119;BMP180;4594;50.994;7.126;2022-11-27T10:25:15;101223.00;;;14.10
9119;BMP180;4594;50.994;7.126;2022-11-27T10:31:03;101227.00;;;14.20
9119;BMP180;4594;50.994;7.126;2022-11-27T10:33:55;101210.00;;;14.40
9119;BMP180;4594;50.994;7.126;2022-11-27T10:36:37;101209.00;;;14.50
9119;BMP180;4594;50.994;7.126;2022-11-27T10:39:14;101212.00;;;14.50
9119;BMP180;4594;50.994;7.126;2022-11-27T10:41:58;101198.00;;;14.60
9119;BMP180;4594;50.994;7.126;2022-11-27T10:44:40;101205.00;;;14.60
9119;BMP180;4594;50.994;7.126;2022-11-27T10:47:11;101196.00;;;14.60
9119;BMP180;4594;50.994;7.126;2022-11-27T10:49:40;101199.00;;;14.70
9119;BMP180;4594;50.994;7.126;2022-11-27T10:52:16;101178.00;;;14.70
9119;BMP180;4594;50.994;7.126;2022-11-27T10:54:48;101185.00;;;14.70
9119;BMP180;4594;50.994;7.126;2022-11-27T11:00:06;101180.00;;;14.80
9119;BMP180;4594;50.994;7.126;2022-11-27T11:02:36;101176.00;;;14.80
9119;BMP180;4594;50.994;7.126;2022-11-27T11:05:19;101180.00;;;14.90
9119;BMP180;4594;50.994;7.126;2022-11-27T11:08:17;101175.00;;;14.90
9119;BMP180;4594;50.994;7.126;2022-11-27T11:11:01;101173.00;;;14.90
9119;BMP180;4594;50.994;7.126;2022-11-27T11:13:31;101158.00;;;14.90
9119;BMP180;4594;50.994;7.126;2022-11-27T11:18:34;101154.00;;;15.00
9119;BMP180;4594;50.994;7.126;2022-11-27T11:21:03;101148.00;;;15.00
9119;BMP180;4594;50.994;7.126;2022-11-27T11:23:35;101164.00;;;15.10
9119;BMP180;4594;50.994;7.126;2022-11-27T11:26:36;101149.00;;;15.10
9119;BMP180;4594;50.994;7.126;2022-11-27T11:29:21;101152.00;;;15.10
9119;BMP180;4594;50.994;7.126;2022-11-27T11:31:48;101114.00;;;15.10
9119;BMP180;4594;50.994;7.126;2022-11-27T11:34:26;101123.00;;;15.10
9119;BMP180;4594;50.994;7.126;2022-11-27T11:37:07;101111.00;;;15.20
9119;BMP180;4594;50.994;7.126;2022-11-27T11:39:46;101115.00;;;15.20
9119;BMP180;4594;50.994;7.126;2022-11-27T11:42:29;101103.00;;;15.20
9119;BMP180;4594;50.994;7.126;2022-11-27T11:47:45;101094.00;;;15.20
9119;BMP180;4594;50.994;7.126;2022-11-27T11:50:22;101083.00;;;15.20
9119;BMP180;4594;50.994;7.126;2022-11-27T11:53:17;101065.00;;;15.20
9119;BMP180;4594;50.994;7.126;2022-11-27T11:58:57;101067.00;;;15.10
9119;BMP180;4594;50.994;7.126;2022-11-27T12:12:59;101038.00;;;15.00
9119;BMP180;4594;50.994;7.126;2022-11-27T12:16:08;101025.00;;;14.90
9119;BMP180;4594;50.994;7.126;2022-11-27T12:18:52;101007.00;;;14.90
9119;BMP180;4594;50.994;7.126;2022-11-27T12:34:04;100974.00;;;14.90
9119;BMP180;4594;50.994;7.126;2022-11-27T12:37:24;100961.00;;;14.90
9119;BMP180;4594;50.994;7.126;2022-11-27T12:48:42;100946.00;;;14.80
9119;BMP180;4594;50.994;7.126;2022-11-27T12:51:18;100949.00;;;14.80
9119;BMP180;4594;50.994;7.126;2022-11-27T12:56:49;100918.00;;;14.90
9119;BMP180;4594;50.994;7.126;2022-11-27T13:02:38;100915.00;;;14.90
9119;BMP180;4594;50.994;7.126;2022-11-27T13:08:01;100898.00;;;14.90
9119;BMP180;4594;50.994;7.126;2022-11-27T13:11:00;100900.00;;;14.80
9119;BMP180;4594;50.994;7.126;2022-11-27T13:18:59;100889.00;;;14.80
9119;BMP180;4594;50.994;7.126;2022-11-27T13:21:32;100862.00;;;14.90
9119;BMP180;4594;50.994;7.126;2022-11-27T13:24:00;100883.00;;;14.90
9119;BMP180;4594;50.994;7.126;2022-11-27T13:29:41;100888.00;;;14.90
9119;BMP180;4594;50.994;7.126;2022-11-27T13:32:17;100880.00;;;14.90
9119;BMP180;4594;50.994;7.126;2022-11-27T13:34:46;100864.00;;;14.90
9119;BMP180;4594;50.994;7.126;2022-11-27T13:37:38;100856.00;;;14.90
9119;BMP180;4594;50.994;7.126;2022-11-27T13:40:22;100867.00;;;14.90
9119;BMP180;4594;50.994;7.126;2022-11-27T13:42:52;100865.00;;;14.90
9119;BMP180;4594;50.994;7.126;2022-11-27T13:45:22;100852.00;;;14.90
9119;BMP180;4594;50.994;7.126;2022-11-27T13:47:50;100836.00;;;14.90
9119;BMP180;4594;50.994;7.126;2022-11-27T13:50:20;100851.00;;;14.90
9119;BMP180;4594;50.994;7.126;2022-11-27T13:55:26;100844.00;;;15.00
9119;BMP180;4594;50.994;7.126;2022-11-27T13:57:54;100852.00;;;14.90
9119;BMP180;4594;50.994;7.126;2022-11-27T14:00:39;100843.00;;;14.90
9119;BMP180;4594;50.994;7.126;2022-11-27T14:03:07;100838.00;;;14.90
9119;BMP180;4594;50.994;7.126;2022-11-27T14:05:44;100849.00;;;14.90
9119;BMP180;4594;50.994;7.126;2022-11-27T14:08:36;100836.00;;;14.90
9119;BMP180;4594;50.994;7.126;2022-11-27T14:11:07;100867.00;;;14.90
9119;BMP180;4594;50.994;7.126;2022-11-27T14:16:28;100864.00;;;14.90
9119;BMP180;4594;50.994;7.126;2022-11-27T14:19:02;100853.00;;;14.90
9119;BMP180;4594;50.994;7.126;2022-11-27T14:21:39;100866.00;;;14.80
9119;BMP180;4594;50.994;7.126;2022-11-27T14:26:52;100871.00;;;14.80
9119;BMP180;4594;50.994;7.126;2022-11-27T14:29:23;100878.00;;;14.80
9119;BMP180;4594;50.994;7.126;2022-11-27T14:32:01;100875.00;;;14.80
9119;BMP180;4594;50.994;7.126;2022-11-27T14:34:33;100857.00;;;14.70
9119;BMP180;4594;50.994;7.126;2022-11-27T14:37:00;100869.00;;;14.70
9119;BMP180;4594;50.994;7.126;2022-11-27T14:39:35;100845.00;;;14.70
9119;BMP180;4594;50.994;7.126;2022-11-27T14:42:06;100845.00;;;14.70
9119;BMP180;4594;50.994;7.126;2022-11-27T14:44:34;100827.00;;;14.70
9119;BMP180;4594;50.994;7.126;2022-11-27T14:47:05;100845.00;;;14.70
9119;BMP180;4594;50.994;7.126;2022-11-27T14:49:33;100833.00;;;14.60
9119;BMP180;4594;50.994;7.126;2022-11-27T14:52:05;100849.00;;;14.60
9119;BMP180;4594;50.994;7.126;2022-11-27T14:54:36;100831.00;;;14.50
9119;BMP180;4594;50.994;7.126;2022-11-27T14:57:04;100847.00;;;14.40
9119;BMP180;4594;50.994;7.126;2022-11-27T14:59:30;100853.00;;;14.30
9119;BMP180;4594;50.994;7.126;2022-11-27T15:04:38;100883.00;;;14.20
9119;BMP180;4594;50.994;7.126;2022-11-27T15:07:13;100877.00;;;14.10
9119;BMP180;4594;50.994;7.126;2022-11-27T15:09:46;100868.00;;;14.10
9119;BMP180;4594;50.994;7.126;2022-11-27T15:12:33;100857.00;;;14.10
9119;BMP180;4594;50.994;7.126;2022-11-27T15:17:49;100843.00;;;13.90
9119;BMP180;4594;50.994;7.126;2022-11-27T15:20:38;100847.00;;;13.80
9119;BMP180;4594;50.994;7.126;2022-11-27T15:23:28;100830.00;;;13.80
9119;BMP180;4594;50.994;7.126;2022-11-27T15:26:12;100845.00;;;13.70
9119;BMP180;4594;50.994;7.126;2022-11-27T15:28:51;100835.00;;;13.60
9119;BMP180;4594;50.994;7.126;2022-11-27T15:36:52;100824.00;;;13.60
9119;BMP180;4594;50.994;7.126;2022-11-27T15:39:35;100822.00;;;13.50
9119;BMP180;4594;50.994;7.126;2022-11-27T15:42:03;100806.00;;;13.50
9119;BMP180;4594;50.994;7.126;2022-11-27T15:44:33;100817.00;;;13.40
9119;BMP180;4594;50.994;7.126;2022-11-27T15:47:01;100809.00;;;13.40
9119;BMP180;4594;50.994;7.126;2022-11-27T15:49:28;100795.00;;;13.30
9119;BMP180;4594;50.994;7.126;2022-11-27T15:51:55;100797.00;;;13.20
9119;BMP180;4594;50.994;7.126;2022-11-27T15:54:21;100783.00;;;13.10
9119;BMP180;4594;50.994;7.126;2022-11-27T15:56:47;100812.00;;;13.10
9119;BMP180;4594;50.994;7.126;2022-11-27T15:59:14;100797.00;;;13.00
9119;BMP180;4594;50.994;7.126;2022-11-27T16:01:40;100801.00;;;13.00
9119;BMP180;4594;50.994;7.126;2022-11-27T16:04:06;100811.00;;;12.90
9119;BMP180;4594;50.994;7.126;2022-11-27T16:06:35;100816.00;;;12.90
9119;BMP180;4594;50.994;7.126;2022-11-27T16:09:02;100804.00;;;12.90
9119;BMP180;4594;50.994;7.126;2022-11-27T16:11:30;100796.00;;;12.90
9119;BMP180;4594;50.994;7.126;2022-11-27T16:13:56;100797.00;;;12.80
9119;BMP180;4594;50.994;7.126;2022-11-27T16:16:22;100793.00;;;12.80
9119;BMP180;4594;50.994;7.126;2022-11-27T16:18:48;100786.00;;;12.80
9119;BMP180;4594;50.994;7.126;2022-11-27T16:21:16;100775.00;;;12.70
9119;BMP180;4594;50.994;7.126;2022-11-27T16:23:42;100794.00;;;12.70
9119;BMP180;4594;50.994;7.126;2022-11-27T16:26:13;100790.00;;;12.70
9119;BMP180;4594;50.994;7.126;2022-11-27T16:28:39;100776.00;;;12.70
9119;BMP180;4594;50.994;7.126;2022-11-27T16:31:11;100768.00;;;12.70
9119;BMP180;4594;50.994;7.126;2022-11-27T16:33:38;100759.00;;;12.60
9119;BMP180;4594;50.994;7.126;2022-11-27T16:36:10;100756.00;;;12.60
9119;BMP180;4594;50.994;7.126;2022-11-27T16:38:36;100726.00;;;12.50
9119;BMP180;4594;50.994;7.126;2022-11-27T16:41:07;100757.00;;;12.50
9119;BMP180;4594;50.994;7.126;2022-11-27T16:43:37;100744.00;;;12.40
9119;BMP180;4594;50.994;7.126;2022-11-27T16:46:11;100743.00;;;12.40
9119;BMP180;4594;50.994;7.126;2022-11-27T16:48:40;100757.00;;;12.40